sensor_id;sensor_type;location;lat;lon;timestamp;pressure;altitude;pressure_sealevel;temperature;humidity
16100;BME280;8154;50.830;12.082;2022-07-23T00:00:28;99509.66;;;30.53;31.92
16100;BME280;8154;50.830;12.082;2022-07-23T00:03:13;99506.72;;;30.54;32.01
16100;BME280;8154;50.830;12.082;2022-07-23T00:05:57;99511.56;;;30.52;31.72
16100;BME280;8154;50.830;12.082;2022-07-23T00:08:41;99501.56;;;30.53;31.63
16100;BME280;8154;50.830;12.082;2022-07-23T00:11:26;99499.34;;;30.50;31.62
16100;BME280;8154;50.830;12.082;2022-07-23T00:14:10;99494.56;;;30.52;31.54
16100;BME280;8154;50.830;12.082;2022-07-23T00:16:54;99489.41;;;30.50;32.03
16100;BME280;8154;50.830;12.082;2022-07-23T00:19:38;99488.31;;;30.51;31.81
16100;BME280;8154;50.830;12.082;2022-07-23T00:22:23;99500.53;;;30.54;31.61
16100;BME280;8154;50.830;12.082;2022-07-23T00:25:07;99502.41;;;30.53;31.93
16100;BME280;8154;50.830;12.082;2022-07-23T00:27:51;99496.66;;;30.50;31.99
16100;BME280;8154;50.830;12.082;2022-07-23T00:30:36;99495.03;;;30.49;31.66
16100;BME280;8154;50.830;12.082;2022-07-23T00:33:20;99494.31;;;30.53;31.64
16100;BME280;8154;50.830;12.082;2022-07-23T00:36:04;99491.59;;;30.53;31.97
16100;BME280;8154;50.830;12.082;2022-07-23T00:38:49;99486.22;;;30.53;31.99
16100;BME280;8154;50.830;12.082;2022-07-23T00:41:33;99484.59;;;30.52;31.82
16100;BME280;8154;50.830;12.082;2022-07-23T00:44:20;99474.59;;;30.53;31.90
16100;BME280;8154;50.830;12.082;2022-07-23T00:47:05;99465.13;;;30.50;31.94
16100;BME280;8154;50.830;12.082;2022-07-23T00:49:49;99459.72;;;30.50;31.65
16100;BME280;8154;50.830;12.082;2022-07-23T00:52:34;99452.94;;;30.48;31.68
16100;BME280;8154;50.830;12.082;2022-07-23T00:55:20;99448.59;;;30.47;32.07
16100;BME280;8154;50.830;12.082;2022-07-23T00:58:04;99454.81;;;30.47;32.02
16100;BME280;8154;50.830;12.082;2022-07-23T01:00:48;99441.31;;;30.47;31.70
16100;BME280;8154;50.830;12.082;2022-07-23T01:03:33;99425.97;;;30.48;31.95
16100;BME280;8154;50.830;12.082;2022-07-23T01:06:17;99420.56;;;30.48;31.55
16100;BME280;8154;50.830;12.082;2022-07-23T01:09:03;99421.88;;;30.45;31.61
16100;BME280;8154;50.830;12.082;2022-07-23T01:11:47;99417.53;;;30.44;31.72
16100;BME280;8154;50.830;12.082;2022-07-23T01:14:32;99417.06;;;30.47;32.02
16100;BME280;8154;50.830;12.082;2022-07-23T01:17:16;99414.59;;;30.46;31.74
16100;BME280;8154;50.830;12.082;2022-07-23T01:20:00;99413.78;;;30.45;31.89
16100;BME280;8154;50.830;12.082;2022-07-23T01:22:45;99416.47;;;30.45;31.61
16100;BME280;8154;50.830;12.082;2022-07-23T01:25:29;99410.50;;;30.43;31.63
16100;BME280;8154;50.830;12.082;2022-07-23T01:28:13;99416.72;;;30.43;32.03
16100;BME280;8154;50.830;12.082;2022-07-23T01:30:57;99406.16;;;30.42;31.74
16100;BME280;8154;50.830;12.082;2022-07-23T01:33:41;99405.91;;;30.43;32.00
16100;BME280;8154;50.830;12.082;2022-07-23T01:36:26;99403.47;;;30.42;31.86
16100;BME280;8154;50.830;12.082;2022-07-23T01:39:10;99398.06;;;30.42;31.66
16100;BME280;8154;50.830;12.082;2022-07-23T01:41:54;99397.50;;;30.40;31.89
16100;BME280;8154;50.830;12.082;2022-07-23T01:44:38;99396.09;;;30.37;31.93
16100;BME280;8154;50.830;12.082;2022-07-23T01:47:23;99384.00;;;30.40;31.66
16100;BME280;8154;50.830;12.082;2022-07-23T01:50:08;99384.00;;;30.40;31.69
16100;BME280;8154;50.830;12.082;2022-07-23T01:52:52;99392.34;;;30.38;31.95
16100;BME280;8154;50.830;12.082;2022-07-23T01:55:36;99395.88;;;30.39;31.89
16100;BME280;8154;50.830;12.082;2022-07-23T01:58:20;99395.03;;;30.38;32.10
16100;BME280;8154;50.830;12.082;2022-07-23T02:01:04;99392.81;;;30.35;31.74
16100;BME280;8154;50.830;12.082;2022-07-23T02:03:49;99384.97;;;30.34;32.15
16100;BME280;8154;50.830;12.082;2022-07-23T02:06:33;99380.41;;;30.34;32.17
16100;BME280;8154;50.830;12.082;2022-07-23T02:09:18;99389.09;;;30.36;31.93
16100;BME280;8154;50.830;12.082;2022-07-23T02:12:02;99384.50;;;30.37;32.21
16100;BME280;8154;50.830;12.082;2022-07-23T02:14:46;99383.09;;;30.34;31.80
16100;BME280;8154;50.830;12.082;2022-07-23T02:17:31;99383.34;;;30.33;31.87
16100;BME280;8154;50.830;12.082;2022-07-23T02:20:15;99386.88;;;30.33;31.91
16100;BME280;8154;50.830;12.082;2022-07-23T02:22:59;99387.69;;;30.34;32.09
16100;BME280;8154;50.830;12.082;2022-07-23T02:25:43;99395.75;;;30.34;31.80
16100;BME280;8154;50.830;12.082;2022-07-23T02:28:27;99397.91;;;30.32;32.04
16100;BME280;8154;50.830;12.082;2022-07-23T02:31:11;99407.03;;;30.31;31.91
16100;BME280;8154;50.830;12.082;2022-07-23T02:33:56;99411.63;;;30.30;32.12
16100;BME280;8154;50.830;12.082;2022-07-23T02:36:40;99426.75;;;30.31;31.97
16100;BME280;8154;50.830;12.082;2022-07-23T02:39:25;99441.53;;;30.29;32.35
16100;BME280;8154;50.830;12.082;2022-07-23T02:42:09;99452.31;;;30.29;32.13
16100;BME280;8154;50.830;12.082;2022-07-23T02:44:54;99442.31;;;30.29;32.01
16100;BME280;8154;50.830;12.082;2022-07-23T02:47:38;99440.34;;;30.25;32.17
16100;BME280;8154;50.830;12.082;2022-07-23T02:50:22;99434.38;;;30.23;32.46
16100;BME280;8154;50.830;12.082;2022-07-23T02:53:07;99428.28;;;30.27;32.52
16100;BME280;8154;50.830;12.082;2022-07-23T02:55:51;99424.41;;;30.23;32.14
16100;BME280;8154;50.830;12.082;2022-07-23T02:58:35;99417.97;;;30.24;32.18
16100;BME280;8154;50.830;12.082;2022-07-23T03:01:20;99415.16;;;30.19;32.61
16100;BME280;8154;50.830;12.082;2022-07-23T03:04:04;99411.41;;;30.20;32.18
16100;BME280;8154;50.830;12.082;2022-07-23T03:06:48;99404.72;;;30.23;32.46
16100;BME280;8154;50.830;12.082;2022-07-23T03:09:32;99403.09;;;30.22;32.61
16100;BME280;8154;50.830;12.082;2022-07-23T03:12:16;99404.38;;;30.19;32.17
16100;BME280;8154;50.830;12.082;2022-07-23T03:15:01;99391.13;;;30.18;32.58
16100;BME280;8154;50.830;12.082;2022-07-23T03:17:44;99391.13;;;30.18;32.54
16100;BME280;8154;50.830;12.082;2022-07-23T03:20:29;99389.47;;;30.17;32.20
16100;BME280;8154;50.830;12.082;2022-07-23T03:23:13;99377.66;;;30.18;32.35
16100;BME280;8154;50.830;12.082;2022-07-23T03:25:57;99369.22;;;30.14;32.64
16100;BME280;8154;50.830;12.082;2022-07-23T03:28:41;99360.31;;;30.14;32.62
16100;BME280;8154;50.830;12.082;2022-07-23T03:31:25;99356.00;;;30.13;32.57
16100;BME280;8154;50.830;12.082;2022-07-23T03:34:09;99351.66;;;30.12;32.39
16100;BME280;8154;50.830;12.082;2022-07-23T03:36:54;99359.75;;;30.12;32.42
16100;BME280;8154;50.830;12.082;2022-07-23T03:39:38;99376.25;;;30.15;32.73
16100;BME280;8154;50.830;12.082;2022-07-23T03:42:22;99383.78;;;30.13;32.24
16100;BME280;8154;50.830;12.082;2022-07-23T03:45:06;99403.19;;;30.15;32.67
16100;BME280;8154;50.830;12.082;2022-07-23T03:47:50;99399.13;;;30.13;32.44
16100;BME280;8154;50.830;12.082;2022-07-23T03:50:34;99418.56;;;30.15;32.63
16100;BME280;8154;50.830;12.082;2022-07-23T03:53:19;99435.78;;;30.14;32.65
16100;BME280;8154;50.830;12.082;2022-07-23T03:56:03;99489.47;;;30.15;32.55
16100;BME280;8154;50.830;12.082;2022-07-23T03:58:48;99532.28;;;30.12;32.67
16100;BME280;8154;50.830;12.082;2022-07-23T04:01:32;99508.69;;;30.07;32.67
16100;BME280;8154;50.830;12.082;2022-07-23T04:04:17;99482.34;;;30.09;32.32
16100;BME280;8154;50.830;12.082;2022-07-23T04:07:01;99496.28;;;30.06;32.71
16100;BME280;8154;50.830;12.082;2022-07-23T04:09:45;99491.50;;;30.08;32.55
16100;BME280;8154;50.830;12.082;2022-07-23T04:12:30;99459.50;;;30.00;32.38
16100;BME280;8154;50.830;12.082;2022-07-23T04:15:14;99455.97;;;30.00;32.32
16100;BME280;8154;50.830;12.082;2022-07-23T04:17:58;99465.13;;;29.99;32.41
16100;BME280;8154;50.830;12.082;2022-07-23T04:20:43;99450.03;;;29.98;32.39
16100;BME280;8154;50.830;12.082;2022-07-23T04:23:28;99451.00;;;29.92;32.25
16100;BME280;8154;50.830;12.082;2022-07-23T04:26:12;99445.34;;;29.93;32.49
16100;BME280;8154;50.830;12.082;2022-07-23T04:28:56;99444.53;;;29.93;32.45
16100;BME280;8154;50.830;12.082;2022-07-23T04:31:40;99447.56;;;29.96;32.28
16100;BME280;8154;50.830;12.082;2022-07-23T04:34:24;99443.22;;;29.95;32.17
16100;BME280;8154;50.830;12.082;2022-07-23T04:37:10;99447.91;;;30.00;32.23
16100;BME280;8154;50.830;12.082;2022-07-23T04:39:54;99441.94;;;29.98;32.01
16100;BME280;8154;50.830;12.082;2022-07-23T04:42:38;99443.47;;;29.94;32.05
16100;BME280;8154;50.830;12.082;2022-07-23T04:45:22;99437.50;;;29.92;32.26
16100;BME280;8154;50.830;12.082;2022-07-23T04:48:09;99437.84;;;29.95;32.00
16100;BME280;8154;50.830;12.082;2022-07-23T04:50:53;99437.84;;;29.95;32.11
16100;BME280;8154;50.830;12.082;2022-07-23T04:53:38;99437.28;;;29.93;32.20
16100;BME280;8154;50.830;12.082;2022-07-23T04:56:22;99462.91;;;29.96;31.89
16100;BME280;8154;50.830;12.082;2022-07-23T04:59:07;99480.63;;;29.92;32.01
16100;BME280;8154;50.830;12.082;2022-07-23T05:01:51;99487.28;;;29.89;32.04
16100;BME280;8154;50.830;12.082;2022-07-23T05:04:35;99476.16;;;29.86;32.08
16100;BME280;8154;50.830;12.082;2022-07-23T05:07:19;99453.09;;;29.90;31.75
16100;BME280;8154;50.830;12.082;2022-07-23T05:10:04;99446.03;;;29.89;31.98
16100;BME280;8154;50.830;12.082;2022-07-23T05:12:48;99437.50;;;29.92;31.55
16100;BME280;8154;50.830;12.082;2022-07-23T05:15:32;99445.25;;;29.88;31.85
16100;BME280;8154;50.830;12.082;2022-07-23T05:18:16;99445.59;;;29.92;31.52
16100;BME280;8154;50.830;12.082;2022-07-23T05:21:01;99441.84;;;29.93;31.82
16100;BME280;8154;50.830;12.082;2022-07-23T05:23:45;99433.16;;;29.91;31.52
16100;BME280;8154;50.830;12.082;2022-07-23T05:26:30;99436.91;;;29.90;31.48
16100;BME280;8154;50.830;12.082;2022-07-23T05:29:14;99434.00;;;29.91;31.66
16100;BME280;8154;50.830;12.082;2022-07-23T05:31:58;99435.84;;;29.91;31.33
16100;BME280;8154;50.830;12.082;2022-07-23T05:34:42;99440.66;;;29.89;31.61
16100;BME280;8154;50.830;12.082;2022-07-23T05:37:26;99445.25;;;29.88;31.28
16100;BME280;8154;50.830;12.082;2022-07-23T05:40:11;99448.53;;;29.90;31.57
16100;BME280;8154;50.830;12.082;2022-07-23T05:42:55;99447.47;;;29.91;31.22
16100;BME280;8154;50.830;12.082;2022-07-23T05:45:39;99462.81;;;29.91;31.07
16100;BME280;8154;50.830;12.082;2022-07-23T05:48:23;99482.25;;;29.93;31.48
16100;BME280;8154;50.830;12.082;2022-07-23T05:51:08;99467.03;;;29.87;31.39
16100;BME280;8154;50.830;12.082;2022-07-23T05:53:52;99483.31;;;29.92;31.39
16100;BME280;8154;50.830;12.082;2022-07-23T05:56:36;99495.13;;;29.91;31.22
16100;BME280;8154;50.830;12.082;2022-07-23T05:59:20;99498.91;;;29.90;30.98
16100;BME280;8154;50.830;12.082;2022-07-23T06:02:04;99501.13;;;29.93;31.07
16100;BME280;8154;50.830;12.082;2022-07-23T06:04:49;99518.59;;;29.90;30.92
16100;BME280;8154;50.830;12.082;2022-07-23T06:07:33;99511.56;;;29.89;31.29
16100;BME280;8154;50.830;12.082;2022-07-23T06:10:18;99508.25;;;29.87;31.40
16100;BME280;8154;50.830;12.082;2022-07-23T06:13:02;99498.53;;;29.86;31.20
16100;BME280;8154;50.830;12.082;2022-07-23T06:15:47;99491.28;;;29.87;31.39
16100;BME280;8154;50.830;12.082;2022-07-23T06:18:32;99485.91;;;29.87;31.04
16100;BME280;8154;50.830;12.082;2022-07-23T06:21:17;99488.00;;;29.85;31.12
16100;BME280;8154;50.830;12.082;2022-07-23T06:24:01;99481.00;;;29.84;31.45
16100;BME280;8154;50.830;12.082;2022-07-23T06:26:45;99486.84;;;29.81;31.02
16100;BME280;8154;50.830;12.082;2022-07-23T06:29:30;99492.81;;;29.83;31.43
16100;BME280;8154;50.830;12.082;2022-07-23T06:32:14;99478.53;;;29.82;31.41
16100;BME280;8154;50.830;12.082;2022-07-23T06:34:58;99484.16;;;29.81;31.43
16100;BME280;8154;50.830;12.082;2022-07-23T06:37:42;99483.31;;;29.80;31.16
16100;BME280;8154;50.830;12.082;2022-07-23T06:40:26;99492.81;;;29.83;31.08
16100;BME280;8154;50.830;12.082;2022-07-23T06:43:11;99481.69;;;29.79;31.23
16100;BME280;8154;50.830;12.082;2022-07-23T06:45:55;99479.81;;;29.80;31.45
16100;BME280;8154;50.830;12.082;2022-07-23T06:48:40;99490.59;;;29.80;31.27
16100;BME280;8154;50.830;12.082;2022-07-23T06:51:24;99484.72;;;29.83;31.58
16100;BME280;8154;50.830;12.082;2022-07-23T06:54:07;99490.59;;;29.80;31.63
16100;BME280;8154;50.830;12.082;2022-07-23T06:56:51;99493.63;;;29.83;31.26
16100;BME280;8154;50.830;12.082;2022-07-23T06:59:36;99493.88;;;29.82;31.36
16100;BME280;8154;50.830;12.082;2022-07-23T07:02:24;99489.06;;;29.84;31.82
16100;BME280;8154;50.830;12.082;2022-07-23T07:05:08;99486.38;;;29.84;31.60
16100;BME280;8154;50.830;12.082;2022-07-23T07:07:55;99490.69;;;29.85;31.80
16100;BME280;8154;50.830;12.082;2022-07-23T07:10:40;99482.63;;;29.85;31.58
16100;BME280;8154;50.830;12.082;2022-07-23T07:13:24;99485.91;;;29.87;31.85
16100;BME280;8154;50.830;12.082;2022-07-23T07:16:08;99487.53;;;29.88;31.73
16100;BME280;8154;50.830;12.082;2022-07-23T07:18:52;99484.16;;;29.81;31.65
16100;BME280;8154;50.830;12.082;2022-07-23T07:21:36;99477.34;;;29.78;31.78
16100;BME280;8154;50.830;12.082;2022-07-23T07:24:20;99472.78;;;29.79;31.67
16100;BME280;8154;50.830;12.082;2022-07-23T07:27:05;99479.81;;;29.80;31.85
16100;BME280;8154;50.830;12.082;2022-07-23T07:29:49;99511.66;;;29.83;32.01
16100;BME280;8154;50.830;12.082;2022-07-23T07:32:33;99519.50;;;29.84;32.01
16100;BME280;8154;50.830;12.082;2022-07-23T07:35:17;99503.09;;;29.86;31.87
16100;BME280;8154;50.830;12.082;2022-07-23T07:38:02;99513.56;;;29.82;31.67
16100;BME280;8154;50.830;12.082;2022-07-23T07:40:46;99508.72;;;29.84;31.67
16100;BME280;8154;50.830;12.082;2022-07-23T07:43:30;99502.88;;;29.87;31.94
16100;BME280;8154;50.830;12.082;2022-07-23T07:46:14;99490.47;;;29.86;31.99
16100;BME280;8154;50.830;12.082;2022-07-23T07:48:58;99502.53;;;29.84;31.78
16100;BME280;8154;50.830;12.082;2022-07-23T07:51:42;99522.22;;;29.84;31.73
16100;BME280;8154;50.830;12.082;2022-07-23T07:54:27;99518.47;;;29.85;31.86
16100;BME280;8154;50.830;12.082;2022-07-23T07:57:11;99514.94;;;29.85;32.03
16100;BME280;8154;50.830;12.082;2022-07-23T07:59:55;99511.78;;;29.88;31.99
16100;BME280;8154;50.830;12.082;2022-07-23T08:02:45;99511.19;;;29.86;32.24
16100;BME280;8154;50.830;12.082;2022-07-23T08:05:30;99504.41;;;29.83;32.05
16100;BME280;8154;50.830;12.082;2022-07-23T08:08:14;99499.84;;;29.84;31.98
16100;BME280;8154;50.830;12.082;2022-07-23T08:10:58;99509.44;;;29.80;32.05
16100;BME280;8154;50.830;12.082;2022-07-23T08:13:43;99518.47;;;29.85;32.27
16100;BME280;8154;50.830;12.082;2022-07-23T08:16:28;99527.34;;;29.86;32.17
16100;BME280;8154;50.830;12.082;2022-07-23T08:19:13;99533.09;;;29.89;32.26
16100;BME280;8154;50.830;12.082;2022-07-23T08:21:57;99531.00;;;29.91;32.22
16100;BME280;8154;50.830;12.082;2022-07-23T08:24:41;99539.31;;;29.90;32.21
16100;BME280;8154;50.830;12.082;2022-07-23T08:27:25;99550.09;;;29.90;32.27
16100;BME280;8154;50.830;12.082;2022-07-23T08:30:10;99550.69;;;29.92;31.93
16100;BME280;8154;50.830;12.082;2022-07-23T08:33:06;99557.13;;;29.91;32.28
16100;BME280;8154;50.830;12.082;2022-07-23T08:35:52;99558.19;;;29.90;32.04
16100;BME280;8154;50.830;12.082;2022-07-23T08:38:40;99555.97;;;29.87;32.37
16100;BME280;8154;50.830;12.082;2022-07-23T08:41:24;99553.41;;;29.92;32.35
16100;BME280;8154;50.830;12.082;2022-07-23T08:44:08;99549.16;;;29.96;31.80
16100;BME280;8154;50.830;12.082;2022-07-23T08:46:53;99550.78;;;29.97;32.15
16100;BME280;8154;50.830;12.082;2022-07-23T08:49:37;99548.81;;;29.92;32.34
16100;BME280;8154;50.830;12.082;2022-07-23T08:52:22;99550.22;;;29.95;32.02
16100;BME280;8154;50.830;12.082;2022-07-23T08:55:08;99553.72;;;29.95;32.34
16100;BME280;8154;50.830;12.082;2022-07-23T08:57:53;99559.94;;;29.96;32.12
16100;BME280;8154;50.830;12.082;2022-07-23T09:00:37;99556.78;;;29.99;31.87
16100;BME280;8154;50.830;12.082;2022-07-23T09:03:33;99559.09;;;29.95;32.00
16100;BME280;8154;50.830;12.082;2022-07-23T09:06:17;99554.56;;;29.96;32.11
16100;BME280;8154;50.830;12.082;2022-07-23T09:09:16;99547.28;;;29.96;32.53
16100;BME280;8154;50.830;12.082;2022-07-23T09:12:06;99552.31;;;29.93;32.52
16100;BME280;8154;50.830;12.082;2022-07-23T09:14:50;99555.03;;;29.93;32.16
16100;BME280;8154;50.830;12.082;2022-07-23T09:17:40;99545.88;;;29.94;32.11
16100;BME280;8154;50.830;12.082;2022-07-23T09:20:25;99539.44;;;29.95;32.43
16100;BME280;8154;50.830;12.082;2022-07-23T09:23:09;99538.84;;;29.93;32.41
16100;BME280;8154;50.830;12.082;2022-07-23T09:25:54;99548.69;;;29.99;32.07
16100;BME280;8154;50.830;12.082;2022-07-23T09:28:50;99564.75;;;29.94;32.20
16100;BME280;8154;50.830;12.082;2022-07-23T09:31:44;99559.59;;;29.92;32.40
16100;BME280;8154;50.830;12.082;2022-07-23T09:34:31;99559.94;;;29.96;32.04
16100;BME280;8154;50.830;12.082;2022-07-23T09:37:18;99556.31;;;29.90;32.25
16100;BME280;8154;50.830;12.082;2022-07-23T09:40:08;99553.84;;;29.89;32.25
16100;BME280;8154;50.830;12.082;2022-07-23T09:42:56;99570.25;;;29.87;32.40
16100;BME280;8154;50.830;12.082;2022-07-23T09:45:40;99563.34;;;29.91;32.26
16100;BME280;8154;50.830;12.082;2022-07-23T09:48:25;99571.56;;;29.96;32.23
16100;BME280;8154;50.830;12.082;2022-07-23T09:51:10;99573.41;;;29.96;32.12
16100;BME280;8154;50.830;12.082;2022-07-23T09:53:54;99568.25;;;29.94;32.62
16100;BME280;8154;50.830;12.082;2022-07-23T09:56:39;99574.47;;;29.95;32.54
16100;BME280;8154;50.830;12.082;2022-07-23T09:59:36;99570.13;;;29.94;32.12
16100;BME280;8154;50.830;12.082;2022-07-23T10:02:21;99576.00;;;29.91;32.25
16100;BME280;8154;50.830;12.082;2022-07-23T10:05:06;99567.44;;;29.94;32.59
16100;BME280;8154;50.830;12.082;2022-07-23T10:07:51;99574.94;;;29.92;32.42
16100;BME280;8154;50.830;12.082;2022-07-23T10:10:40;99570.34;;;29.92;32.69
16100;BME280;8154;50.830;12.082;2022-07-23T10:13:25;99567.09;;;29.90;32.93
16100;BME280;8154;50.830;12.082;2022-07-23T10:16:13;99576.59;;;29.93;32.43
16100;BME280;8154;50.830;12.082;2022-07-23T10:18:57;99576.69;;;29.86;32.95
16100;BME280;8154;50.830;12.082;2022-07-23T10:21:50;99574.47;;;29.83;33.16
16100;BME280;8154;50.830;12.082;2022-07-23T10:30:41;99586.28;;;29.71;33.57
16100;BME280;8154;50.830;12.082;2022-07-23T10:36:30;99612.91;;;29.79;33.28
16100;BME280;8154;50.830;12.082;2022-07-23T10:39:24;99598.59;;;29.78;33.87
16100;BME280;8154;50.830;12.082;2022-07-23T10:42:16;99595.56;;;29.75;34.00
16100;BME280;8154;50.830;12.082;2022-07-23T10:45:22;99603.75;;;29.80;33.58
16100;BME280;8154;50.830;12.082;2022-07-23T10:48:21;99598.59;;;29.78;33.98
16100;BME280;8154;50.830;12.082;2022-07-23T10:51:13;99603.41;;;29.76;33.79
16100;BME280;8154;50.830;12.082;2022-07-23T10:53:58;99597.19;;;29.76;33.99
16100;BME280;8154;50.830;12.082;2022-07-23T10:56:50;99598.13;;;29.70;33.95
16100;BME280;8154;50.830;12.082;2022-07-23T11:02:48;99609.03;;;29.75;34.34
16100;BME280;8154;50.830;12.082;2022-07-23T11:05:43;99605.75;;;29.73;34.05
16100;BME280;8154;50.830;12.082;2022-07-23T11:08:27;99609.84;;;29.75;34.37
16100;BME280;8154;50.830;12.082;2022-07-23T11:11:12;99604.69;;;29.74;34.34
16100;BME280;8154;50.830;12.082;2022-07-23T11:13:56;99595.44;;;29.70;34.17
16100;BME280;8154;50.830;12.082;2022-07-23T11:16:47;99604.13;;;29.72;34.42
16100;BME280;8154;50.830;12.082;2022-07-23T11:22:58;99593.81;;;29.80;34.29
16100;BME280;8154;50.830;12.082;2022-07-23T11:25:42;99590.50;;;29.78;33.99
16100;BME280;8154;50.830;12.082;2022-07-23T11:28:28;99607.88;;;29.82;33.90
16100;BME280;8154;50.830;12.082;2022-07-23T11:31:19;99612.66;;;29.80;33.86
16100;BME280;8154;50.830;12.082;2022-07-23T11:40:13;99590.19;;;29.75;34.51
16100;BME280;8154;50.830;12.082;2022-07-23T11:43:07;99596.72;;;29.79;34.06
16100;BME280;8154;50.830;12.082;2022-07-23T11:45:59;99594.28;;;29.77;34.54
16100;BME280;8154;50.830;12.082;2022-07-23T11:48:44;99586.41;;;29.76;34.63
16100;BME280;8154;50.830;12.082;2022-07-23T11:51:28;99592.03;;;29.74;34.21
16100;BME280;8154;50.830;12.082;2022-07-23T11:54:15;99582.19;;;29.80;34.38
16100;BME280;8154;50.830;12.082;2022-07-23T11:57:00;99584.41;;;29.83;34.25
16100;BME280;8154;50.830;12.082;2022-07-23T11:59:47;99579.84;;;29.83;34.33
16100;BME280;8154;50.830;12.082;2022-07-23T12:02:33;99566.75;;;29.87;33.96
16100;BME280;8154;50.830;12.082;2022-07-23T12:05:20;99567.22;;;29.84;34.03
16100;BME280;8154;50.830;12.082;2022-07-23T12:08:09;99567.22;;;29.84;34.35
16100;BME280;8154;50.830;12.082;2022-07-23T12:10:54;99574.59;;;29.88;34.21
16100;BME280;8154;50.830;12.082;2022-07-23T12:13:38;99570.00;;;29.89;34.22
16100;BME280;8154;50.830;12.082;2022-07-23T12:16:22;99562.16;;;29.87;34.17
16100;BME280;8154;50.830;12.082;2022-07-23T12:19:06;99555.38;;;29.85;34.01
16100;BME280;8154;50.830;12.082;2022-07-23T12:21:50;99557.00;;;29.86;34.29
16100;BME280;8154;50.830;12.082;2022-07-23T12:27:39;99571.31;;;29.75;34.46
16100;BME280;8154;50.830;12.082;2022-07-23T12:30:24;99562.75;;;29.78;34.75
16100;BME280;8154;50.830;12.082;2022-07-23T12:33:14;99557.38;;;29.78;34.73
16100;BME280;8154;50.830;12.082;2022-07-23T12:36:02;99562.63;;;29.84;34.30
16100;BME280;8154;50.830;12.082;2022-07-23T12:38:48;99559.13;;;29.84;34.46
16100;BME280;8154;50.830;12.082;2022-07-23T12:41:52;99556.44;;;29.84;34.17
16100;BME280;8154;50.830;12.082;2022-07-23T12:44:37;99553.50;;;29.85;34.63
16100;BME280;8154;50.830;12.082;2022-07-23T12:47:21;99554.91;;;29.88;34.28
16100;BME280;8154;50.830;12.082;2022-07-23T12:50:05;99553.97;;;29.82;34.30
16100;BME280;8154;50.830;12.082;2022-07-23T12:52:49;99553.75;;;29.84;34.63
16100;BME280;8154;50.830;12.082;2022-07-23T12:55:35;99554.31;;;29.86;34.49
16100;BME280;8154;50.830;12.082;2022-07-23T12:58:20;99565.69;;;29.88;34.39
16100;BME280;8154;50.830;12.082;2022-07-23T13:01:05;99561.22;;;29.82;34.66
16100;BME280;8154;50.830;12.082;2022-07-23T13:09:33;99566.03;;;29.80;34.84
16100;BME280;8154;50.830;12.082;2022-07-23T13:12:17;99567.69;;;29.81;34.47
16100;BME280;8154;50.830;12.082;2022-07-23T13:15:02;99566.03;;;29.80;34.53
16100;BME280;8154;50.830;12.082;2022-07-23T13:17:46;99568.47;;;29.81;34.73
16100;BME280;8154;50.830;12.082;2022-07-23T13:20:32;99576.56;;;29.81;34.83
16100;BME280;8154;50.830;12.082;2022-07-23T13:23:18;99567.91;;;29.79;34.92
16100;BME280;8154;50.830;12.082;2022-07-23T13:26:03;99571.88;;;29.77;34.59
16100;BME280;8154;50.830;12.082;2022-07-23T13:28:48;99574.56;;;29.77;34.80
16100;BME280;8154;50.830;12.082;2022-07-23T13:31:35;99574.47;;;29.72;34.98
16100;BME280;8154;50.830;12.082;2022-07-23T13:34:20;99570.34;;;29.69;34.79
16100;BME280;8154;50.830;12.082;2022-07-23T13:37:05;99562.03;;;29.71;35.16
16100;BME280;8154;50.830;12.082;2022-07-23T13:39:49;99564.97;;;29.69;35.28
16100;BME280;8154;50.830;12.082;2022-07-23T13:42:34;99557.97;;;29.68;35.02
16100;BME280;8154;50.830;12.082;2022-07-23T13:45:18;99566.59;;;29.70;35.19
16100;BME280;8154;50.830;12.082;2022-07-23T13:48:02;99559.59;;;29.69;35.05
16100;BME280;8154;50.830;12.082;2022-07-23T13:50:48;99562.03;;;29.71;35.36
16100;BME280;8154;50.830;12.082;2022-07-23T13:53:32;99565.22;;;29.68;35.23
16100;BME280;8154;50.830;12.082;2022-07-23T13:56:16;99567.44;;;29.71;35.29
16100;BME280;8154;50.830;12.082;2022-07-23T13:59:00;99573.41;;;29.73;35.26
16100;BME280;8154;50.830;12.082;2022-07-23T14:01:45;99564.75;;;29.71;35.47
16100;BME280;8154;50.830;12.082;2022-07-23T14:04:29;99567.44;;;29.71;35.34
16100;BME280;8154;50.830;12.082;2022-07-23T14:07:14;99565.34;;;29.73;35.36
16100;BME280;8154;50.830;12.082;2022-07-23T14:09:58;99566.97;;;29.74;35.35
16100;BME280;8154;50.830;12.082;2022-07-23T14:12:42;99562.41;;;29.74;35.47
16100;BME280;8154;50.830;12.082;2022-07-23T14:15:28;99557.00;;;29.74;35.64
16100;BME280;8154;50.830;12.082;2022-07-23T14:18:12;99552.22;;;29.76;35.71
16100;BME280;8154;50.830;12.082;2022-07-23T14:20:56;99556.06;;;29.80;35.58
16100;BME280;8154;50.830;12.082;2022-07-23T14:23:41;99561.94;;;29.77;35.49
16100;BME280;8154;50.830;12.082;2022-07-23T14:26:25;99560.41;;;29.81;35.67
16100;BME280;8154;50.830;12.082;2022-07-23T14:29:09;99568.47;;;29.81;35.30
16100;BME280;8154;50.830;12.082;2022-07-23T14:31:53;99564.16;;;29.80;35.24
16100;BME280;8154;50.830;12.082;2022-07-23T14:34:37;99571.66;;;29.78;35.18
16100;BME280;8154;50.830;12.082;2022-07-23T14:37:21;99570.25;;;29.76;35.40
16100;BME280;8154;50.830;12.082;2022-07-23T14:40:06;99570.97;;;29.71;35.31
16100;BME280;8154;50.830;12.082;2022-07-23T14:42:50;99570.72;;;29.73;34.92
16100;BME280;8154;50.830;12.082;2022-07-23T14:45:35;99572.72;;;29.77;35.35
16100;BME280;8154;50.830;12.082;2022-07-23T14:48:19;99579.72;;;29.78;35.21
16100;BME280;8154;50.830;12.082;2022-07-23T14:51:04;99581.41;;;29.79;35.19
16100;BME280;8154;50.830;12.082;2022-07-23T14:53:48;99574.00;;;29.75;35.07
16100;BME280;8154;50.830;12.082;2022-07-23T14:56:32;99583.84;;;29.69;35.31
16100;BME280;8154;50.830;12.082;2022-07-23T14:59:17;99584.66;;;29.70;35.32
16100;BME280;8154;50.830;12.082;2022-07-23T15:02:02;99579.88;;;29.72;34.94
16100;BME280;8154;50.830;12.082;2022-07-23T15:04:46;99582.09;;;29.75;34.89